sensor_id;sensor_type;location;lat;lon;timestamp;P1;durP1;ratioP1;P2;durP2;ratioP2
2760;SDS011;15420;48.636;9.798;2023-02-15T00:01:50;31.47;;;12.83;;
2760;SDS011;15420;48.636;9.798;2023-02-15T00:04:23;21.30;;;12.30;;
2760;SDS011;15420;48.636;9.798;2023-02-15T00:07:10;25.20;;;12.57;;
2760;SDS011;15420;48.636;9.798;2023-02-15T00:09:39;23.60;;;13.40;;
2760;SDS011;15420;48.636;9.798;2023-02-15T00:12:05;21.77;;;12.70;;
2760;SDS011;15420;48.636;9.798;2023-02-15T00:14:34;22.90;;;13.73;;
2760;SDS011;15420;48.636;9.798;2023-02-15T00:17:02;22.57;;;12.60;;
2760;SDS011;15420;48.636;9.798;2023-02-15T00:19:29;23.80;;;12.40;;
2760;SDS011;15420;48.636;9.798;2023-02-15T00:21:55;21.73;;;11.87;;
2760;SDS011;15420;48.636;9.798;2023-02-15T00:24:21;19.07;;;12.30;;
2760;SDS011;15420;48.636;9.798;2023-02-15T00:26:47;23.70;;;12.40;;
2760;SDS011;15420;48.636;9.798;2023-02-15T00:29:14;17.37;;;11.80;;
2760;SDS011;15420;48.636;9.798;2023-02-15T00:31:41;19.57;;;11.27;;
2760;SDS011;15420;48.636;9.798;2023-02-15T00:34:17;23.13;;;12.60;;
2760;SDS011;15420;48.636;9.798;2023-02-15T00:36:45;17.50;;;11.50;;
2760;SDS011;15420;48.636;9.798;2023-02-15T00:39:17;19.13;;;11.07;;
2760;SDS011;15420;48.636;9.798;2023-02-15T00:41:44;20.10;;;11.10;;
2760;SDS011;15420;48.636;9.798;2023-02-15T00:44:11;23.00;;;13.37;;
2760;SDS011;15420;48.636;9.798;2023-02-15T00:46:38;20.90;;;12.47;;
2760;SDS011;15420;48.636;9.798;2023-02-15T00:49:07;23.47;;;12.90;;
2760;SDS011;15420;48.636;9.798;2023-02-15T00:51:33;18.90;;;12.20;;
2760;SDS011;15420;48.636;9.798;2023-02-15T00:54:01;21.03;;;11.80;;
2760;SDS011;15420;48.636;9.798;2023-02-15T00:56:27;23.50;;;12.50;;
2760;SDS011;15420;48.636;9.798;2023-02-15T00:58:56;21.60;;;12.33;;
2760;SDS011;15420;48.636;9.798;2023-02-15T01:01:24;20.70;;;12.73;;
2760;SDS011;15420;48.636;9.798;2023-02-15T01:03:53;21.57;;;12.70;;
2760;SDS011;15420;48.636;9.798;2023-02-15T01:06:24;24.27;;;12.13;;
2760;SDS011;15420;48.636;9.798;2023-02-15T01:08:50;21.40;;;12.80;;
2760;SDS011;15420;48.636;9.798;2023-02-15T01:11:19;20.50;;;12.47;;
2760;SDS011;15420;48.636;9.798;2023-02-15T01:13:56;20.90;;;11.63;;
2760;SDS011;15420;48.636;9.798;2023-02-15T01:16:23;23.20;;;13.07;;
2760;SDS011;15420;48.636;9.798;2023-02-15T01:18:51;22.47;;;12.20;;
2760;SDS011;15420;48.636;9.798;2023-02-15T01:21:20;24.70;;;13.93;;
2760;SDS011;15420;48.636;9.798;2023-02-15T01:23:48;17.23;;;11.17;;
2760;SDS011;15420;48.636;9.798;2023-02-15T01:26:17;19.93;;;11.37;;
2760;SDS011;15420;48.636;9.798;2023-02-15T01:28:48;21.73;;;11.80;;
2760;SDS011;15420;48.636;9.798;2023-02-15T01:31:18;23.07;;;12.40;;
2760;SDS011;15420;48.636;9.798;2023-02-15T01:33:46;24.47;;;12.73;;
2760;SDS011;15420;48.636;9.798;2023-02-15T01:36:13;25.10;;;12.00;;
2760;SDS011;15420;48.636;9.798;2023-02-15T01:38:42;21.73;;;12.50;;
2760;SDS011;15420;48.636;9.798;2023-02-15T01:41:11;24.10;;;13.17;;
2760;SDS011;15420;48.636;9.798;2023-02-15T01:43:51;19.27;;;11.13;;
2760;SDS011;15420;48.636;9.798;2023-02-15T01:46:40;20.00;;;10.73;;
2760;SDS011;15420;48.636;9.798;2023-02-15T01:49:16;20.20;;;11.97;;
2760;SDS011;15420;48.636;9.798;2023-02-15T01:51:46;18.00;;;10.90;;
2760;SDS011;15420;48.636;9.798;2023-02-15T01:54:19;18.97;;;11.80;;
2760;SDS011;15420;48.636;9.798;2023-02-15T01:56:49;20.13;;;11.27;;
2760;SDS011;15420;48.636;9.798;2023-02-15T01:59:16;20.57;;;11.47;;
2760;SDS011;15420;48.636;9.798;2023-02-15T02:01:46;19.10;;;11.40;;
2760;SDS011;15420;48.636;9.798;2023-02-15T02:07:01;21.00;;;12.37;;
2760;SDS011;15420;48.636;9.798;2023-02-15T02:09:29;18.33;;;11.00;;
2760;SDS011;15420;48.636;9.798;2023-02-15T02:11:56;17.43;;;11.03;;
2760;SDS011;15420;48.636;9.798;2023-02-15T02:14:23;18.70;;;11.40;;
2760;SDS011;15420;48.636;9.798;2023-02-15T02:16:56;17.77;;;11.60;;
2760;SDS011;15420;48.636;9.798;2023-02-15T02:41:38;18.00;;;11.03;;
2760;SDS011;15420;48.636;9.798;2023-02-15T02:44:28;20.43;;;11.20;;
2760;SDS011;15420;48.636;9.798;2023-02-15T02:47:12;18.43;;;11.33;;
2760;SDS011;15420;48.636;9.798;2023-02-15T02:49:46;19.70;;;11.10;;
2760;SDS011;15420;48.636;9.798;2023-02-15T02:54:57;18.00;;;11.93;;
2760;SDS011;15420;48.636;9.798;2023-02-15T02:57:23;18.67;;;10.90;;
2760;SDS011;15420;48.636;9.798;2023-02-15T02:59:51;13.80;;;10.20;;
2760;SDS011;15420;48.636;9.798;2023-02-15T03:02:26;20.07;;;9.83;;
2760;SDS011;15420;48.636;9.798;2023-02-15T03:05:00;19.80;;;10.80;;
2760;SDS011;15420;48.636;9.798;2023-02-15T03:07:31;16.30;;;10.73;;
2760;SDS011;15420;48.636;9.798;2023-02-15T03:10:02;17.10;;;10.23;;
2760;SDS011;15420;48.636;9.798;2023-02-15T03:12:37;16.10;;;9.97;;
2760;SDS011;15420;48.636;9.798;2023-02-15T03:15:11;14.03;;;10.50;;
2760;SDS011;15420;48.636;9.798;2023-02-15T03:17:51;17.10;;;11.00;;
2760;SDS011;15420;48.636;9.798;2023-02-15T03:20:24;16.40;;;10.57;;
2760;SDS011;15420;48.636;9.798;2023-02-15T03:23:03;19.10;;;10.83;;
2760;SDS011;15420;48.636;9.798;2023-02-15T03:25:45;18.57;;;10.00;;
2760;SDS011;15420;48.636;9.798;2023-02-15T03:31:23;17.23;;;11.03;;
2760;SDS011;15420;48.636;9.798;2023-02-15T03:33:58;18.13;;;11.13;;
2760;SDS011;15420;48.636;9.798;2023-02-15T03:42:10;20.10;;;10.33;;
2760;SDS011;15420;48.636;9.798;2023-02-15T03:44:59;18.23;;;11.00;;
2760;SDS011;15420;48.636;9.798;2023-02-15T03:47:38;16.90;;;10.13;;
2760;SDS011;15420;48.636;9.798;2023-02-15T03:50:18;17.70;;;11.00;;
2760;SDS011;15420;48.636;9.798;2023-02-15T03:53:09;18.10;;;11.30;;
2760;SDS011;15420;48.636;9.798;2023-02-15T03:55:38;17.03;;;10.40;;
2760;SDS011;15420;48.636;9.798;2023-02-15T03:58:05;17.60;;;10.57;;
2760;SDS011;15420;48.636;9.798;2023-02-15T04:00:55;20.17;;;10.97;;
2760;SDS011;15420;48.636;9.798;2023-02-15T04:03:49;17.70;;;10.93;;
2760;SDS011;15420;48.636;9.798;2023-02-15T04:06:26;20.20;;;11.47;;
2760;SDS011;15420;48.636;9.798;2023-02-15T04:08:53;18.37;;;11.63;;
2760;SDS011;15420;48.636;9.798;2023-02-15T04:11:40;18.40;;;10.30;;
2760;SDS011;15420;48.636;9.798;2023-02-15T04:14:06;15.30;;;9.60;;
2760;SDS011;15420;48.636;9.798;2023-02-15T04:16:53;24.70;;;11.50;;
2760;SDS011;15420;48.636;9.798;2023-02-15T04:19:19;20.33;;;11.40;;
2760;SDS011;15420;48.636;9.798;2023-02-15T04:22:03;20.40;;;11.70;;
2760;SDS011;15420;48.636;9.798;2023-02-15T04:24:48;18.40;;;10.10;;
2760;SDS011;15420;48.636;9.798;2023-02-15T04:27:33;16.13;;;9.77;;
2760;SDS011;15420;48.636;9.798;2023-02-15T04:30:01;18.60;;;10.50;;
2760;SDS011;15420;48.636;9.798;2023-02-15T04:32:31;16.10;;;10.03;;
2760;SDS011;15420;48.636;9.798;2023-02-15T04:35:00;18.87;;;10.07;;
2760;SDS011;15420;48.636;9.798;2023-02-15T04:37:26;15.20;;;9.30;;
2760;SDS011;15420;48.636;9.798;2023-02-15T04:39:52;18.70;;;11.30;;
2760;SDS011;15420;48.636;9.798;2023-02-15T04:42:21;21.37;;;11.47;;
2760;SDS011;15420;48.636;9.798;2023-02-15T04:44:47;20.03;;;12.13;;
2760;SDS011;15420;48.636;9.798;2023-02-15T04:47:13;22.23;;;11.93;;
2760;SDS011;15420;48.636;9.798;2023-02-15T04:49:39;19.90;;;11.20;;
2760;SDS011;15420;48.636;9.798;2023-02-15T04:52:10;20.87;;;12.37;;
2760;SDS011;15420;48.636;9.798;2023-02-15T04:54:38;20.63;;;10.07;;
2760;SDS011;15420;48.636;9.798;2023-02-15T04:57:07;16.30;;;11.10;;
2760;SDS011;15420;48.636;9.798;2023-02-15T04:59:34;20.50;;;11.10;;
2760;SDS011;15420;48.636;9.798;2023-02-15T05:02:00;20.60;;;11.70;;
2760;SDS011;15420;48.636;9.798;2023-02-15T05:04:29;20.50;;;11.40;;
2760;SDS011;15420;48.636;9.798;2023-02-15T05:06:55;15.97;;;10.63;;
2760;SDS011;15420;48.636;9.798;2023-02-15T05:09:21;21.30;;;10.90;;
2760;SDS011;15420;48.636;9.798;2023-02-15T05:11:47;17.93;;;11.70;;
2760;SDS011;15420;48.636;9.798;2023-02-15T05:14:13;21.17;;;11.70;;
2760;SDS011;15420;48.636;9.798;2023-02-15T05:16:40;23.70;;;11.03;;
2760;SDS011;15420;48.636;9.798;2023-02-15T05:19:08;20.70;;;11.43;;
2760;SDS011;15420;48.636;9.798;2023-02-15T05:21:39;18.13;;;11.17;;
2760;SDS011;15420;48.636;9.798;2023-02-15T05:24:05;25.00;;;13.07;;
2760;SDS011;15420;48.636;9.798;2023-02-15T05:26:50;22.73;;;11.60;;
2760;SDS011;15420;48.636;9.798;2023-02-15T05:29:37;21.27;;;12.63;;
2760;SDS011;15420;48.636;9.798;2023-02-15T05:32:03;17.87;;;10.87;;
2760;SDS011;15420;48.636;9.798;2023-02-15T05:34:29;18.20;;;11.07;;
2760;SDS011;15420;48.636;9.798;2023-02-15T05:36:56;22.87;;;12.40;;
2760;SDS011;15420;48.636;9.798;2023-02-15T05:39:22;21.77;;;10.90;;
2760;SDS011;15420;48.636;9.798;2023-02-15T05:41:50;18.63;;;10.80;;
2760;SDS011;15420;48.636;9.798;2023-02-15T05:44:19;20.43;;;11.50;;
2760;SDS011;15420;48.636;9.798;2023-02-15T05:46:45;20.10;;;11.77;;
2760;SDS011;15420;48.636;9.798;2023-02-15T05:49:11;19.00;;;11.70;;
2760;SDS011;15420;48.636;9.798;2023-02-15T05:51:37;20.23;;;11.33;;
2760;SDS011;15420;48.636;9.798;2023-02-15T05:54:06;20.60;;;11.17;;
2760;SDS011;15420;48.636;9.798;2023-02-15T05:56:34;18.03;;;10.97;;
2760;SDS011;15420;48.636;9.798;2023-02-15T05:59:03;18.77;;;10.63;;
2760;SDS011;15420;48.636;9.798;2023-02-15T06:01:31;25.93;;;13.30;;
2760;SDS011;15420;48.636;9.798;2023-02-15T06:03:57;22.20;;;11.53;;
2760;SDS011;15420;48.636;9.798;2023-02-15T06:06:28;27.37;;;12.80;;
2760;SDS011;15420;48.636;9.798;2023-02-15T06:08:56;27.13;;;13.70;;
2760;SDS011;15420;48.636;9.798;2023-02-15T06:11:25;21.93;;;13.40;;
2760;SDS011;15420;48.636;9.798;2023-02-15T06:13:53;29.63;;;14.00;;
2760;SDS011;15420;48.636;9.798;2023-02-15T06:16:19;27.10;;;13.47;;
2760;SDS011;15420;48.636;9.798;2023-02-15T06:18:46;20.80;;;11.77;;
2760;SDS011;15420;48.636;9.798;2023-02-15T06:21:12;28.37;;;12.90;;
2760;SDS011;15420;48.636;9.798;2023-02-15T06:23:41;31.90;;;14.83;;
2760;SDS011;15420;48.636;9.798;2023-02-15T06:26:08;25.40;;;13.50;;
2760;SDS011;15420;48.636;9.798;2023-02-15T06:28:34;22.67;;;12.57;;
2760;SDS011;15420;48.636;9.798;2023-02-15T06:31:03;22.73;;;11.77;;
2760;SDS011;15420;48.636;9.798;2023-02-15T06:33:32;24.50;;;12.37;;
2760;SDS011;15420;48.636;9.798;2023-02-15T06:36:01;25.60;;;12.60;;
2760;SDS011;15420;48.636;9.798;2023-02-15T06:38:28;20.40;;;10.97;;
2760;SDS011;15420;48.636;9.798;2023-02-15T06:40:55;20.93;;;11.43;;
2760;SDS011;15420;48.636;9.798;2023-02-15T06:43:23;19.57;;;11.23;;
2760;SDS011;15420;48.636;9.798;2023-02-15T06:45:49;26.80;;;14.30;;
2760;SDS011;15420;48.636;9.798;2023-02-15T06:48:22;20.73;;;12.90;;
2760;SDS011;15420;48.636;9.798;2023-02-15T06:50:48;21.50;;;11.50;;
2760;SDS011;15420;48.636;9.798;2023-02-15T06:53:17;28.03;;;13.07;;
2760;SDS011;15420;48.636;9.798;2023-02-15T06:55:45;25.03;;;12.70;;
2760;SDS011;15420;48.636;9.798;2023-02-15T06:58:11;20.00;;;10.97;;
2760;SDS011;15420;48.636;9.798;2023-02-15T07:00:37;25.70;;;12.33;;
2760;SDS011;15420;48.636;9.798;2023-02-15T07:03:06;21.57;;;12.40;;
2760;SDS011;15420;48.636;9.798;2023-02-15T07:05:33;23.93;;;13.00;;
2760;SDS011;15420;48.636;9.798;2023-02-15T07:08:00;27.47;;;14.93;;
2760;SDS011;15420;48.636;9.798;2023-02-15T07:10:26;26.50;;;12.97;;
2760;SDS011;15420;48.636;9.798;2023-02-15T07:12:53;23.60;;;12.00;;
2760;SDS011;15420;48.636;9.798;2023-02-15T07:15:21;26.97;;;14.30;;
2760;SDS011;15420;48.636;9.798;2023-02-15T07:17:52;24.30;;;12.73;;
2760;SDS011;15420;48.636;9.798;2023-02-15T07:20:19;26.13;;;13.37;;
2760;SDS011;15420;48.636;9.798;2023-02-15T07:22:47;19.60;;;12.30;;
2760;SDS011;15420;48.636;9.798;2023-02-15T07:25:14;23.17;;;12.07;;
2760;SDS011;15420;48.636;9.798;2023-02-15T07:27:40;19.67;;;11.13;;
2760;SDS011;15420;48.636;9.798;2023-02-15T07:30:07;25.00;;;13.60;;
2760;SDS011;15420;48.636;9.798;2023-02-15T07:32:37;27.90;;;15.00;;
2760;SDS011;15420;48.636;9.798;2023-02-15T07:35:23;26.60;;;13.67;;
2760;SDS011;15420;48.636;9.798;2023-02-15T07:37:49;24.87;;;14.47;;
2760;SDS011;15420;48.636;9.798;2023-02-15T07:40:15;26.40;;;13.03;;
2760;SDS011;15420;48.636;9.798;2023-02-15T07:42:47;22.53;;;12.40;;
2760;SDS011;15420;48.636;9.798;2023-02-15T07:45:13;23.27;;;12.00;;
2760;SDS011;15420;48.636;9.798;2023-02-15T07:47:41;20.83;;;11.73;;
2760;SDS011;15420;48.636;9.798;2023-02-15T07:50:12;23.50;;;12.33;;
2760;SDS011;15420;48.636;9.798;2023-02-15T07:52:38;26.70;;;14.00;;
2760;SDS011;15420;48.636;9.798;2023-02-15T07:55:04;26.47;;;13.77;;
2760;SDS011;15420;48.636;9.798;2023-02-15T07:57:31;30.80;;;15.40;;
2760;SDS011;15420;48.636;9.798;2023-02-15T07:59:57;29.17;;;14.83;;
2760;SDS011;15420;48.636;9.798;2023-02-15T08:02:25;25.33;;;13.50;;
2760;SDS011;15420;48.636;9.798;2023-02-15T08:04:51;26.80;;;14.07;;
2760;SDS011;15420;48.636;9.798;2023-02-15T08:07:17;24.77;;;11.87;;
2760;SDS011;15420;48.636;9.798;2023-02-15T08:09:46;23.60;;;13.10;;
2760;SDS011;15420;48.636;9.798;2023-02-15T08:12:14;22.63;;;13.20;;
2760;SDS011;15420;48.636;9.798;2023-02-15T08:14:40;24.70;;;13.63;;
2760;SDS011;15420;48.636;9.798;2023-02-15T08:17:07;25.63;;;14.87;;
2760;SDS011;15420;48.636;9.798;2023-02-15T08:19:33;24.10;;;12.23;;
2760;SDS011;15420;48.636;9.798;2023-02-15T08:22:02;25.93;;;12.87;;
2760;SDS011;15420;48.636;9.798;2023-02-15T08:24:33;27.90;;;14.17;;
2760;SDS011;15420;48.636;9.798;2023-02-15T08:27:08;22.43;;;12.90;;
2760;SDS011;15420;48.636;9.798;2023-02-15T08:29:36;30.00;;;12.53;;
2760;SDS011;15420;48.636;9.798;2023-02-15T08:32:04;22.40;;;13.57;;
2760;SDS011;15420;48.636;9.798;2023-02-15T08:34:33;30.70;;;13.27;;
2760;SDS011;15420;48.636;9.798;2023-02-15T08:37:00;26.33;;;12.93;;
2760;SDS011;15420;48.636;9.798;2023-02-15T08:39:27;20.13;;;12.27;;
2760;SDS011;15420;48.636;9.798;2023-02-15T08:41:53;24.43;;;13.00;;
2760;SDS011;15420;48.636;9.798;2023-02-15T08:44:20;34.37;;;14.67;;
2760;SDS011;15420;48.636;9.798;2023-02-15T08:46:46;28.83;;;14.53;;
2760;SDS011;15420;48.636;9.798;2023-02-15T08:49:18;25.00;;;13.80;;
2760;SDS011;15420;48.636;9.798;2023-02-15T08:51:45;26.83;;;14.37;;
2760;SDS011;15420;48.636;9.798;2023-02-15T08:54:13;34.43;;;17.00;;
2760;SDS011;15420;48.636;9.798;2023-02-15T08:56:42;24.33;;;13.17;;
2760;SDS011;15420;48.636;9.798;2023-02-15T08:59:15;31.47;;;15.60;;
2760;SDS011;15420;48.636;9.798;2023-02-15T09:01:43;27.07;;;14.80;;
2760;SDS011;15420;48.636;9.798;2023-02-15T09:04:10;22.97;;;13.77;;
2760;SDS011;15420;48.636;9.798;2023-02-15T09:06:38;27.73;;;14.73;;
2760;SDS011;15420;48.636;9.798;2023-02-15T09:09:06;31.00;;;16.10;;
2760;SDS011;15420;48.636;9.798;2023-02-15T09:11:36;29.17;;;14.60;;
2760;SDS011;15420;48.636;9.798;2023-02-15T09:14:10;28.33;;;14.17;;
2760;SDS011;15420;48.636;9.798;2023-02-15T09:16:39;23.93;;;14.50;;
2760;SDS011;15420;48.636;9.798;2023-02-15T09:19:09;29.67;;;15.47;;
2760;SDS011;15420;48.636;9.798;2023-02-15T09:21:36;32.63;;;15.20;;
2760;SDS011;15420;48.636;9.798;2023-02-15T09:24:05;25.83;;;13.20;;
2760;SDS011;15420;48.636;9.798;2023-02-15T09:26:34;32.60;;;14.83;;
2760;SDS011;15420;48.636;9.798;2023-02-15T09:29:04;27.07;;;14.67;;
2760;SDS011;15420;48.636;9.798;2023-02-15T09:31:31;29.10;;;15.57;;
2760;SDS011;15420;48.636;9.798;2023-02-15T09:33:59;22.67;;;13.67;;
2760;SDS011;15420;48.636;9.798;2023-02-15T09:36:28;31.23;;;15.50;;
2760;SDS011;15420;48.636;9.798;2023-02-15T09:38:58;28.07;;;14.90;;
2760;SDS011;15420;48.636;9.798;2023-02-15T09:49:42;24.37;;;13.87;;
2760;SDS011;15420;48.636;9.798;2023-02-15T09:58:11;27.33;;;14.03;;
2760;SDS011;15420;48.636;9.798;2023-02-15T10:01:11;23.57;;;13.07;;
2760;SDS011;15420;48.636;9.798;2023-02-15T10:06:43;21.13;;;13.67;;
2760;SDS011;15420;48.636;9.798;2023-02-15T10:17:59;22.97;;;14.83;;
2760;SDS011;15420;48.636;9.798;2023-02-15T10:20:59;24.80;;;13.53;;
2760;SDS011;15420;48.636;9.798;2023-02-15T10:29:38;29.47;;;16.00;;
2760;SDS011;15420;48.636;9.798;2023-02-15T10:32:25;26.63;;;14.97;;
2760;SDS011;15420;48.636;9.798;2023-02-15T10:37:49;26.77;;;14.40;;
2760;SDS011;15420;48.636;9.798;2023-02-15T10:51:02;19.03;;;12.77;;
2760;SDS011;15420;48.636;9.798;2023-02-15T10:56:32;25.37;;;14.33;;
2760;SDS011;15420;48.636;9.798;2023-02-15T11:07:06;24.60;;;13.80;;
2760;SDS011;15420;48.636;9.798;2023-02-15T11:09:42;29.13;;;14.20;;
2760;SDS011;15420;48.636;9.798;2023-02-15T11:12:16;22.63;;;13.90;;
2760;SDS011;15420;48.636;9.798;2023-02-15T11:17:23;22.60;;;13.90;;
2760;SDS011;15420;48.636;9.798;2023-02-15T11:19:57;25.90;;;15.47;;
2760;SDS011;15420;48.636;9.798;2023-02-15T11:22:44;23.30;;;13.97;;
2760;SDS011;15420;48.636;9.798;2023-02-15T11:25:19;23.27;;;13.57;;
2760;SDS011;15420;48.636;9.798;2023-02-15T11:27:49;25.57;;;14.47;;
2760;SDS011;15420;48.636;9.798;2023-02-15T11:30:20;23.03;;;13.37;;
2760;SDS011;15420;48.636;9.798;2023-02-15T11:32:50;24.23;;;13.40;;
2760;SDS011;15420;48.636;9.798;2023-02-15T11:35:37;22.60;;;13.73;;
2760;SDS011;15420;48.636;9.798;2023-02-15T11:38:28;25.20;;;15.43;;
2760;SDS011;15420;48.636;9.798;2023-02-15T11:41:10;25.87;;;15.57;;
2760;SDS011;15420;48.636;9.798;2023-02-15T11:43:42;25.00;;;14.60;;
2760;SDS011;15420;48.636;9.798;2023-02-15T11:46:23;30.80;;;15.67;;
2760;SDS011;15420;48.636;9.798;2023-02-15T11:48:52;25.63;;;15.50;;
2760;SDS011;15420;48.636;9.798;2023-02-15T11:51:18;26.63;;;15.97;;
2760;SDS011;15420;48.636;9.798;2023-02-15T11:53:47;27.23;;;15.37;;
2760;SDS011;15420;48.636;9.798;2023-02-15T11:58:56;22.83;;;14.53;;
2760;SDS011;15420;48.636;9.798;2023-02-15T12:01:41;21.03;;;14.20;;
2760;SDS011;15420;48.636;9.798;2023-02-15T12:07:01;25.97;;;15.20;;
2760;SDS011;15420;48.636;9.798;2023-02-15T12:09:47;24.27;;;15.00;;
2760;SDS011;15420;48.636;9.798;2023-02-15T12:15:03;27.93;;;16.57;;
2760;SDS011;15420;48.636;9.798;2023-02-15T12:17:35;23.30;;;14.50;;
2760;SDS011;15420;48.636;9.798;2023-02-15T12:20:51;24.03;;;14.70;;
2760;SDS011;15420;48.636;9.798;2023-02-15T12:23:00;23.00;;;13.43;;
2760;SDS011;15420;48.636;9.798;2023-02-15T12:25:40;30.03;;;16.07;;
2760;SDS011;15420;48.636;9.798;2023-02-15T12:30:48;24.60;;;14.50;;
2760;SDS011;15420;48.636;9.798;2023-02-15T12:35:56;25.17;;;14.53;;
2760;SDS011;15420;48.636;9.798;2023-02-15T12:38:28;25.00;;;15.30;;
2760;SDS011;15420;48.636;9.798;2023-02-15T12:43:26;24.50;;;13.97;;
2760;SDS011;15420;48.636;9.798;2023-02-15T12:46:19;26.67;;;14.73;;
2760;SDS011;15420;48.636;9.798;2023-02-15T12:51:47;24.00;;;13.50;;
2760;SDS011;15420;48.636;9.798;2023-02-15T12:56:55;21.33;;;13.30;;
2760;SDS011;15420;48.636;9.798;2023-02-15T12:59:24;20.07;;;13.10;;
2760;SDS011;15420;48.636;9.798;2023-02-15T13:01:51;22.57;;;13.80;;
2760;SDS011;15420;48.636;9.798;2023-02-15T13:06:51;19.70;;;12.10;;
2760;SDS011;15420;48.636;9.798;2023-02-15T13:14:46;18.40;;;12.33;;
2760;SDS011;15420;48.636;9.798;2023-02-15T13:17:19;20.37;;;13.20;;
2760;SDS011;15420;48.636;9.798;2023-02-15T13:20:06;17.00;;;11.37;;
2760;SDS011;15420;48.636;9.798;2023-02-15T13:22:46;17.17;;;11.97;;
2760;SDS011;15420;48.636;9.798;2023-02-15T13:25:19;17.27;;;11.10;;
2760;SDS011;15420;48.636;9.798;2023-02-15T13:27:54;17.87;;;11.33;;
2760;SDS011;15420;48.636;9.798;2023-02-15T13:30:35;19.20;;;11.40;;
2760;SDS011;15420;48.636;9.798;2023-02-15T13:33:14;17.23;;;11.00;;
2760;SDS011;15420;48.636;9.798;2023-02-15T13:35:55;15.57;;;10.77;;
2760;SDS011;15420;48.636;9.798;2023-02-15T13:41:30;12.73;;;9.50;;
2760;SDS011;15420;48.636;9.798;2023-02-15T13:44:25;14.50;;;9.50;;
2760;SDS011;15420;48.636;9.798;2023-02-15T13:47:21;13.03;;;8.73;;
2760;SDS011;15420;48.636;9.798;2023-02-15T13:53:24;13.53;;;8.97;;
2760;SDS011;15420;48.636;9.798;2023-02-15T13:55:36;12.50;;;9.43;;
2760;SDS011;15420;48.636;9.798;2023-02-15T14:04:17;11.80;;;7.97;;
2760;SDS011;15420;48.636;9.798;2023-02-15T14:06:58;11.07;;;8.03;;
2760;SDS011;15420;48.636;9.798;2023-02-15T14:15:08;10.87;;;6.90;;
2760;SDS011;15420;48.636;9.798;2023-02-15T14:26:23;11.73;;;6.73;;
2760;SDS011;15420;48.636;9.798;2023-02-15T14:31:58;11.13;;;6.47;;
2760;SDS011;15420;48.636;9.798;2023-02-15T14:37:16;9.00;;;6.50;;
2760;SDS011;15420;48.636;9.798;2023-02-15T14:42:56;10.90;;;6.97;;
2760;SDS011;15420;48.636;9.798;2023-02-15T14:48:25;6.50;;;5.10;;
2760;SDS011;15420;48.636;9.798;2023-02-15T14:51:09;6.27;;;5.17;;
2760;SDS011;15420;48.636;9.798;2023-02-15T14:53:55;5.83;;;4.10;;
2760;SDS011;15420;48.636;9.798;2023-02-15T14:56:25;7.60;;;5.57;;
2760;SDS011;15420;48.636;9.798;2023-02-15T15:01:24;8.00;;;5.70;;
2760;SDS011;15420;48.636;9.798;2023-02-15T15:03:57;5.37;;;4.73;;
2760;SDS011;15420;48.636;9.798;2023-02-15T15:09:46;6.73;;;5.07;;
2760;SDS011;15420;48.636;9.798;2023-02-15T15:12:41;6.83;;;4.70;;
2760;SDS011;15420;48.636;9.798;2023-02-15T15:31:35;8.70;;;5.53;;
2760;SDS011;15420;48.636;9.798;2023-02-15T15:48:40;10.23;;;6.50;;
2760;SDS011;15420;48.636;9.798;2023-02-15T15:54:15;11.40;;;7.43;;
2760;SDS011;15420;48.636;9.798;2023-02-15T15:56:50;12.67;;;8.03;;
2760;SDS011;15420;48.636;9.798;2023-02-15T15:59:26;15.10;;;7.60;;
2760;SDS011;15420;48.636;9.798;2023-02-15T16:02:09;11.07;;;7.47;;
2760;SDS011;15420;48.636;9.798;2023-02-15T16:04:43;7.73;;;6.37;;
2760;SDS011;15420;48.636;9.798;2023-02-15T16:10:21;7.93;;;5.87;;
2760;SDS011;15420;48.636;9.798;2023-02-15T16:12:58;6.80;;;5.30;;
2760;SDS011;15420;48.636;9.798;2023-02-15T16:15:42;10.20;;;5.53;;
2760;SDS011;15420;48.636;9.798;2023-02-15T16:18:18;7.03;;;4.93;;
2760;SDS011;15420;48.636;9.798;2023-02-15T16:20:51;7.33;;;5.00;;
2760;SDS011;15420;48.636;9.798;2023-02-15T16:26:09;8.20;;;5.67;;
2760;SDS011;15420;48.636;9.798;2023-02-15T16:28:58;8.00;;;5.67;;
2760;SDS011;15420;48.636;9.798;2023-02-15T16:31:26;11.33;;;7.23;;
2760;SDS011;15420;48.636;9.798;2023-02-15T16:33:53;7.60;;;5.80;;
2760;SDS011;15420;48.636;9.798;2023-02-15T16:41:21;17.87;;;10.37;;
2760;SDS011;15420;48.636;9.798;2023-02-15T16:43:53;12.23;;;8.10;;
2760;SDS011;15420;48.636;9.798;2023-02-15T16:46:30;10.80;;;6.97;;
2760;SDS011;15420;48.636;9.798;2023-02-15T16:49:06;8.90;;;6.43;;
2760;SDS011;15420;48.636;9.798;2023-02-15T16:51:43;8.00;;;6.10;;
2760;SDS011;15420;48.636;9.798;2023-02-15T16:54:14;10.30;;;6.40;;
2760;SDS011;15420;48.636;9.798;2023-02-15T16:56:49;6.53;;;5.83;;
2760;SDS011;15420;48.636;9.798;2023-02-15T16:59:34;9.10;;;6.20;;
2760;SDS011;15420;48.636;9.798;2023-02-15T17:02:18;9.00;;;6.37;;
2760;SDS011;15420;48.636;9.798;2023-02-15T17:05:16;9.70;;;6.90;;
2760;SDS011;15420;48.636;9.798;2023-02-15T17:08:03;10.67;;;6.70;;
2760;SDS011;15420;48.636;9.798;2023-02-15T17:10:41;11.80;;;8.00;;
2760;SDS011;15420;48.636;9.798;2023-02-15T17:13:12;13.43;;;9.57;;
2760;SDS011;15420;48.636;9.798;2023-02-15T17:15:40;16.73;;;11.70;;
2760;SDS011;15420;48.636;9.798;2023-02-15T17:18:20;16.20;;;11.87;;
2760;SDS011;15420;48.636;9.798;2023-02-15T17:20:48;20.90;;;13.53;;
2760;SDS011;15420;48.636;9.798;2023-02-15T17:23:21;26.43;;;15.97;;
2760;SDS011;15420;48.636;9.798;2023-02-15T17:25:48;27.47;;;18.07;;
2760;SDS011;15420;48.636;9.798;2023-02-15T17:28:20;20.43;;;14.03;;
2760;SDS011;15420;48.636;9.798;2023-02-15T17:30:49;18.50;;;12.40;;
2760;SDS011;15420;48.636;9.798;2023-02-15T17:33:35;29.00;;;15.70;;
2760;SDS011;15420;48.636;9.798;2023-02-15T17:41:28;12.90;;;9.60;;
2760;SDS011;15420;48.636;9.798;2023-02-15T17:44:01;12.97;;;8.27;;
2760;SDS011;15420;48.636;9.798;2023-02-15T17:46:29;13.43;;;8.07;;
2760;SDS011;15420;48.636;9.798;2023-02-15T17:48:59;13.10;;;8.50;;
2760;SDS011;15420;48.636;9.798;2023-02-15T17:51:26;16.60;;;9.40;;
2760;SDS011;15420;48.636;9.798;2023-02-15T17:53:52;16.63;;;10.50;;
2760;SDS011;15420;48.636;9.798;2023-02-15T17:56:37;14.50;;;9.17;;
2760;SDS011;15420;48.636;9.798;2023-02-15T17:59:03;12.80;;;8.50;;
2760;SDS011;15420;48.636;9.798;2023-02-15T18:01:31;15.23;;;10.50;;
2760;SDS011;15420;48.636;9.798;2023-02-15T18:04:17;16.53;;;10.60;;
2760;SDS011;15420;48.636;9.798;2023-02-15T18:07:03;17.90;;;10.30;;
2760;SDS011;15420;48.636;9.798;2023-02-15T18:09:47;21.30;;;12.70;;
2760;SDS011;15420;48.636;9.798;2023-02-15T18:12:35;20.90;;;13.23;;
2760;SDS011;15420;48.636;9.798;2023-02-15T18:15:05;28.83;;;12.93;;
2760;SDS011;15420;48.636;9.798;2023-02-15T18:17:45;19.87;;;11.97;;
2760;SDS011;15420;48.636;9.798;2023-02-15T18:20:23;20.33;;;11.33;;
2760;SDS011;15420;48.636;9.798;2023-02-15T18:22:55;17.60;;;11.57;;
2760;SDS011;15420;48.636;9.798;2023-02-15T18:25:21;17.70;;;11.93;;
2760;SDS011;15420;48.636;9.798;2023-02-15T18:27:50;23.70;;;14.50;;
2760;SDS011;15420;48.636;9.798;2023-02-15T18:30:18;20.23;;;12.70;;
2760;SDS011;15420;48.636;9.798;2023-02-15T18:32:50;17.90;;;11.20;;
2760;SDS011;15420;48.636;9.798;2023-02-15T18:35:21;17.00;;;11.20;;
2760;SDS011;15420;48.636;9.798;2023-02-15T18:37:51;18.80;;;10.30;;
2760;SDS011;15420;48.636;9.798;2023-02-15T18:40:18;18.37;;;11.07;;
2760;SDS011;15420;48.636;9.798;2023-02-15T18:42:46;23.00;;;11.03;;
2760;SDS011;15420;48.636;9.798;2023-02-15T18:47:51;18.53;;;11.40;;
2760;SDS011;15420;48.636;9.798;2023-02-15T18:50:26;20.00;;;11.63;;